sensor_id;sensor_type;location;lat;lon;timestamp;temperature;humidity
25951;DHT22;13748;52.240;6.002;2023-04-01T00:01:27;10.70;99.90
25951;DHT22;13748;52.240;6.002;2023-04-01T00:03:54;10.60;99.90
25951;DHT22;13748;52.240;6.002;2023-04-01T00:06:21;10.60;99.90
25951;DHT22;13748;52.240;6.002;2023-04-01T00:08:49;10.60;99.90
25951;DHT22;13748;52.240;6.002;2023-04-01T00:11:16;10.70;99.90
25951;DHT22;13748;52.240;6.002;2023-04-01T00:13:46;10.60;99.90
25951;DHT22;13748;52.240;6.002;2023-04-01T00:16:13;10.60;99.90
25951;DHT22;13748;52.240;6.002;2023-04-01T00:18:48;10.60;99.90
25951;DHT22;13748;52.240;6.002;2023-04-01T00:21:15;10.70;99.90
25951;DHT22;13748;52.240;6.002;2023-04-01T00:23:42;10.70;99.90
25951;DHT22;13748;52.240;6.002;2023-04-01T00:26:10;10.70;99.90
25951;DHT22;13748;52.240;6.002;2023-04-01T00:28:39;10.60;99.90
25951;DHT22;13748;52.240;6.002;2023-04-01T00:31:08;10.60;99.90
25951;DHT22;13748;52.240;6.002;2023-04-01T00:33:35;10.60;99.90
25951;DHT22;13748;52.240;6.002;2023-04-01T00:38:35;10.60;99.90
25951;DHT22;13748;52.240;6.002;2023-04-01T00:41:02;10.60;99.90
25951;DHT22;13748;52.240;6.002;2023-04-01T00:43:30;10.70;99.90
25951;DHT22;13748;52.240;6.002;2023-04-01T00:45:57;10.60;99.90
25951;DHT22;13748;52.240;6.002;2023-04-01T00:48:36;10.60;99.90
25951;DHT22;13748;52.240;6.002;2023-04-01T00:51:13;10.60;99.90
25951;DHT22;13748;52.240;6.002;2023-04-01T00:53:43;10.70;99.90
25951;DHT22;13748;52.240;6.002;2023-04-01T00:56:21;10.70;99.90
25951;DHT22;13748;52.240;6.002;2023-04-01T00:58:54;10.70;99.90
25951;DHT22;13748;52.240;6.002;2023-04-01T01:01:23;10.60;99.90
25951;DHT22;13748;52.240;6.002;2023-04-01T01:03:51;10.70;99.90
25951;DHT22;13748;52.240;6.002;2023-04-01T01:11:50;10.60;99.90
25951;DHT22;13748;52.240;6.002;2023-04-01T01:14:30;10.60;99.90
25951;DHT22;13748;52.240;6.002;2023-04-01T01:17:09;10.60;99.90
25951;DHT22;13748;52.240;6.002;2023-04-01T01:25:16;10.60;99.90
25951;DHT22;13748;52.240;6.002;2023-04-01T01:27:54;10.60;99.90
25951;DHT22;13748;52.240;6.002;2023-04-01T01:36:06;10.70;99.90
25951;DHT22;13748;52.240;6.002;2023-04-01T01:38:38;10.70;99.90
25951;DHT22;13748;52.240;6.002;2023-04-01T01:41:07;10.70;99.90
25951;DHT22;13748;52.240;6.002;2023-04-01T01:43:38;10.70;99.90
25951;DHT22;13748;52.240;6.002;2023-04-01T01:46:11;10.70;99.90
25951;DHT22;13748;52.240;6.002;2023-04-01T01:48:38;10.70;99.90
25951;DHT22;13748;52.240;6.002;2023-04-01T01:51:06;10.70;99.90
25951;DHT22;13748;52.240;6.002;2023-04-01T01:53:34;10.70;99.90
25951;DHT22;13748;52.240;6.002;2023-04-01T01:56:01;10.70;99.90
25951;DHT22;13748;52.240;6.002;2023-04-01T01:58:32;10.70;99.90
25951;DHT22;13748;52.240;6.002;2023-04-01T02:01:05;10.80;99.90
25951;DHT22;13748;52.240;6.002;2023-04-01T02:03:35;10.90;99.90
25951;DHT22;13748;52.240;6.002;2023-04-01T02:06:07;10.80;99.90
25951;DHT22;13748;52.240;6.002;2023-04-01T02:08:57;10.70;99.90
25951;DHT22;13748;52.240;6.002;2023-04-01T02:12:10;10.70;99.90
25951;DHT22;13748;52.240;6.002;2023-04-01T02:14:23;10.70;99.90
25951;DHT22;13748;52.240;6.002;2023-04-01T02:17:00;10.70;99.90
25951;DHT22;13748;52.240;6.002;2023-04-01T02:19:36;10.60;99.90
25951;DHT22;13748;52.240;6.002;2023-04-01T02:22:08;10.70;99.90
25951;DHT22;13748;52.240;6.002;2023-04-01T02:24:37;10.70;99.90
25951;DHT22;13748;52.240;6.002;2023-04-01T02:27:05;10.70;99.90
25951;DHT22;13748;52.240;6.002;2023-04-01T02:29:32;10.70;99.90
25951;DHT22;13748;52.240;6.002;2023-04-01T02:32:00;10.60;99.90
25951;DHT22;13748;52.240;6.002;2023-04-01T02:34:27;10.50;99.90
25951;DHT22;13748;52.240;6.002;2023-04-01T02:36:55;10.50;99.90
25951;DHT22;13748;52.240;6.002;2023-04-01T02:39:23;10.50;99.90
25951;DHT22;13748;52.240;6.002;2023-04-01T02:41:52;10.50;99.90
25951;DHT22;13748;52.240;6.002;2023-04-01T02:44:19;10.50;99.90
25951;DHT22;13748;52.240;6.002;2023-04-01T02:46:46;10.50;99.90
25951;DHT22;13748;52.240;6.002;2023-04-01T02:49:13;10.50;99.90
25951;DHT22;13748;52.240;6.002;2023-04-01T02:51:39;10.50;99.90
25951;DHT22;13748;52.240;6.002;2023-04-01T02:54:06;10.50;99.90
25951;DHT22;13748;52.240;6.002;2023-04-01T02:56:33;10.40;99.90
25951;DHT22;13748;52.240;6.002;2023-04-01T02:59:00;10.40;99.90
25951;DHT22;13748;52.240;6.002;2023-04-01T03:01:27;10.50;99.90
25951;DHT22;13748;52.240;6.002;2023-04-01T03:03:54;10.50;99.90
25951;DHT22;13748;52.240;6.002;2023-04-01T03:06:20;10.50;99.90
25951;DHT22;13748;52.240;6.002;2023-04-01T03:08:47;10.40;99.90
25951;DHT22;13748;52.240;6.002;2023-04-01T03:11:14;10.40;99.90
25951;DHT22;13748;52.240;6.002;2023-04-01T03:13:41;10.50;99.90
25951;DHT22;13748;52.240;6.002;2023-04-01T03:16:08;10.40;99.90
25951;DHT22;13748;52.240;6.002;2023-04-01T03:18:34;10.40;99.90
25951;DHT22;13748;52.240;6.002;2023-04-01T03:21:21;10.40;99.90
25951;DHT22;13748;52.240;6.002;2023-04-01T03:23:48;10.40;99.90
25951;DHT22;13748;52.240;6.002;2023-04-01T03:26:16;10.40;99.90
25951;DHT22;13748;52.240;6.002;2023-04-01T03:28:43;10.40;99.90
25951;DHT22;13748;52.240;6.002;2023-04-01T03:31:10;10.40;99.90
25951;DHT22;13748;52.240;6.002;2023-04-01T03:33:37;10.40;99.90
25951;DHT22;13748;52.240;6.002;2023-04-01T03:36:04;10.40;99.90
25951;DHT22;13748;52.240;6.002;2023-04-01T03:38:34;10.40;99.90
25951;DHT22;13748;52.240;6.002;2023-04-01T03:41:01;10.40;99.90
25951;DHT22;13748;52.240;6.002;2023-04-01T03:43:28;10.40;99.90
25951;DHT22;13748;52.240;6.002;2023-04-01T03:45:55;10.40;99.90
25951;DHT22;13748;52.240;6.002;2023-04-01T03:48:25;10.40;99.90
25951;DHT22;13748;52.240;6.002;2023-04-01T03:50:52;10.50;99.90
25951;DHT22;13748;52.240;6.002;2023-04-01T03:53:19;10.50;99.90
25951;DHT22;13748;52.240;6.002;2023-04-01T03:55:46;10.50;99.90
25951;DHT22;13748;52.240;6.002;2023-04-01T03:58:13;10.50;99.90
25951;DHT22;13748;52.240;6.002;2023-04-01T04:00:40;10.50;99.90
25951;DHT22;13748;52.240;6.002;2023-04-01T04:03:07;10.50;99.90
25951;DHT22;13748;52.240;6.002;2023-04-01T04:05:34;10.50;99.90
25951;DHT22;13748;52.240;6.002;2023-04-01T04:08:02;10.50;99.90
25951;DHT22;13748;52.240;6.002;2023-04-01T04:10:29;10.50;99.90
25951;DHT22;13748;52.240;6.002;2023-04-01T04:12:56;10.50;99.90
25951;DHT22;13748;52.240;6.002;2023-04-01T04:15:23;10.50;99.90
25951;DHT22;13748;52.240;6.002;2023-04-01T04:17:51;10.50;99.90
25951;DHT22;13748;52.240;6.002;2023-04-01T04:20:18;10.50;99.90
25951;DHT22;13748;52.240;6.002;2023-04-01T04:22:44;10.50;99.90
25951;DHT22;13748;52.240;6.002;2023-04-01T04:25:11;10.50;99.90
25951;DHT22;13748;52.240;6.002;2023-04-01T04:27:38;10.50;99.90
25951;DHT22;13748;52.240;6.002;2023-04-01T04:30:06;10.50;99.90
25951;DHT22;13748;52.240;6.002;2023-04-01T04:32:34;10.50;99.90
25951;DHT22;13748;52.240;6.002;2023-04-01T04:35:01;10.60;99.90
25951;DHT22;13748;52.240;6.002;2023-04-01T04:37:28;10.60;99.90
25951;DHT22;13748;52.240;6.002;2023-04-01T04:39:55;10.60;99.90
25951;DHT22;13748;52.240;6.002;2023-04-01T04:42:22;10.60;99.90
25951;DHT22;13748;52.240;6.002;2023-04-01T04:44:49;10.60;99.90
25951;DHT22;13748;52.240;6.002;2023-04-01T04:47:15;10.60;99.90
25951;DHT22;13748;52.240;6.002;2023-04-01T04:49:42;10.70;99.90
25951;DHT22;13748;52.240;6.002;2023-04-01T04:52:09;10.60;99.90
25951;DHT22;13748;52.240;6.002;2023-04-01T04:54:36;10.70;99.90
25951;DHT22;13748;52.240;6.002;2023-04-01T04:57:03;10.70;99.90
25951;DHT22;13748;52.240;6.002;2023-04-01T04:59:30;10.70;99.90
25951;DHT22;13748;52.240;6.002;2023-04-01T05:01:59;10.60;99.90
25951;DHT22;13748;52.240;6.002;2023-04-01T05:04:26;10.60;99.90
25951;DHT22;13748;52.240;6.002;2023-04-01T05:06:53;10.70;99.90
25951;DHT22;13748;52.240;6.002;2023-04-01T05:09:20;10.70;99.90
25951;DHT22;13748;52.240;6.002;2023-04-01T05:11:46;10.60;99.90
25951;DHT22;13748;52.240;6.002;2023-04-01T05:14:16;10.60;99.90
25951;DHT22;13748;52.240;6.002;2023-04-01T05:16:43;10.60;99.90
25951;DHT22;13748;52.240;6.002;2023-04-01T05:19:10;10.60;99.90
25951;DHT22;13748;52.240;6.002;2023-04-01T05:21:37;10.60;99.90
25951;DHT22;13748;52.240;6.002;2023-04-01T05:24:08;10.70;99.90
25951;DHT22;13748;52.240;6.002;2023-04-01T05:26:35;10.70;99.90
25951;DHT22;13748;52.240;6.002;2023-04-01T05:29:04;10.70;99.90
25951;DHT22;13748;52.240;6.002;2023-04-01T05:31:34;10.70;99.90
25951;DHT22;13748;52.240;6.002;2023-04-01T05:34:01;10.70;99.90
25951;DHT22;13748;52.240;6.002;2023-04-01T05:36:28;10.70;99.90
25951;DHT22;13748;52.240;6.002;2023-04-01T05:38:55;10.70;99.90
25951;DHT22;13748;52.240;6.002;2023-04-01T05:41:22;10.70;99.90
25951;DHT22;13748;52.240;6.002;2023-04-01T05:43:49;10.70;99.90
25951;DHT22;13748;52.240;6.002;2023-04-01T05:46:16;10.70;99.90
25951;DHT22;13748;52.240;6.002;2023-04-01T05:48:43;10.80;99.90
25951;DHT22;13748;52.240;6.002;2023-04-01T05:51:15;10.70;99.90
25951;DHT22;13748;52.240;6.002;2023-04-01T05:53:43;10.50;99.90
25951;DHT22;13748;52.240;6.002;2023-04-01T05:56:11;11.00;99.90
25951;DHT22;13748;52.240;6.002;2023-04-01T05:58:38;11.20;99.90
25951;DHT22;13748;52.240;6.002;2023-04-01T06:01:07;10.80;99.90
25951;DHT22;13748;52.240;6.002;2023-04-01T06:03:41;11.10;99.90
25951;DHT22;13748;52.240;6.002;2023-04-01T06:06:18;11.20;99.90
25951;DHT22;13748;52.240;6.002;2023-04-01T06:08:46;10.80;99.90
25951;DHT22;13748;52.240;6.002;2023-04-01T06:11:37;11.10;99.90
25951;DHT22;13748;52.240;6.002;2023-04-01T06:22:37;10.80;99.90
25951;DHT22;13748;52.240;6.002;2023-04-01T06:25:18;10.80;99.90
25951;DHT22;13748;52.240;6.002;2023-04-01T06:30:43;10.70;99.90
25951;DHT22;13748;52.240;6.002;2023-04-01T06:33:29;10.80;99.90
25951;DHT22;13748;52.240;6.002;2023-04-01T06:46:47;10.70;99.90
25951;DHT22;13748;52.240;6.002;2023-04-01T06:49:51;10.90;99.90
25951;DHT22;13748;52.240;6.002;2023-04-01T06:55:41;10.90;99.90
25951;DHT22;13748;52.240;6.002;2023-04-01T07:01:15;10.90;99.90
25951;DHT22;13748;52.240;6.002;2023-04-01T07:03:49;10.80;99.90
25951;DHT22;13748;52.240;6.002;2023-04-01T07:06:36;10.90;99.90
25951;DHT22;13748;52.240;6.002;2023-04-01T07:09:21;10.90;99.90
25951;DHT22;13748;52.240;6.002;2023-04-01T07:11:50;10.90;99.90
25951;DHT22;13748;52.240;6.002;2023-04-01T07:14:30;10.90;99.90
25951;DHT22;13748;52.240;6.002;2023-04-01T07:17:14;10.90;99.90
25951;DHT22;13748;52.240;6.002;2023-04-01T07:20:10;10.90;99.90
25951;DHT22;13748;52.240;6.002;2023-04-01T07:22:40;10.90;99.90
25951;DHT22;13748;52.240;6.002;2023-04-01T07:25:30;10.90;99.90
25951;DHT22;13748;52.240;6.002;2023-04-01T07:28:05;10.90;99.90
25951;DHT22;13748;52.240;6.002;2023-04-01T07:33:46;11.00;99.90
25951;DHT22;13748;52.240;6.002;2023-04-01T07:36:29;11.10;99.90
25951;DHT22;13748;52.240;6.002;2023-04-01T07:50:21;11.40;99.90
25951;DHT22;13748;52.240;6.002;2023-04-01T07:53:28;11.40;99.90
25951;DHT22;13748;52.240;6.002;2023-04-01T08:06:58;11.90;99.90
25951;DHT22;13748;52.240;6.002;2023-04-01T08:15:22;12.00;99.90
25951;DHT22;13748;52.240;6.002;2023-04-01T08:23:00;12.20;99.90
25951;DHT22;13748;52.240;6.002;2023-04-01T08:25:30;12.30;99.90
25951;DHT22;13748;52.240;6.002;2023-04-01T08:28:20;12.40;99.90
25951;DHT22;13748;52.240;6.002;2023-04-01T08:33:39;12.40;99.90
25951;DHT22;13748;52.240;6.002;2023-04-01T08:39:06;12.50;99.90
25951;DHT22;13748;52.240;6.002;2023-04-01T08:42:04;12.60;99.90
25951;DHT22;13748;52.240;6.002;2023-04-01T08:44:50;12.60;99.90
25951;DHT22;13748;52.240;6.002;2023-04-01T08:52:36;13.00;99.90
25951;DHT22;13748;52.240;6.002;2023-04-01T08:57:51;13.10;99.90
25951;DHT22;13748;52.240;6.002;2023-04-01T09:00:31;13.30;99.90
25951;DHT22;13748;52.240;6.002;2023-04-01T09:36:47;15.80;99.90
25951;DHT22;13748;52.240;6.002;2023-04-01T09:39:26;15.80;99.90
25951;DHT22;13748;52.240;6.002;2023-04-01T09:42:42;15.90;99.90
25951;DHT22;13748;52.240;6.002;2023-04-01T09:44:58;15.90;99.90
25951;DHT22;13748;52.240;6.002;2023-04-01T09:54:16;15.40;99.90
25951;DHT22;13748;52.240;6.002;2023-04-01T10:15:56;13.50;99.90
25951;DHT22;13748;52.240;6.002;2023-04-01T10:29:51;13.00;99.90
25951;DHT22;13748;52.240;6.002;2023-04-01T10:46:41;12.50;99.90
25951;DHT22;13748;52.240;6.002;2023-04-01T10:58:44;12.40;99.90
25951;DHT22;13748;52.240;6.002;2023-04-01T11:04:39;12.60;99.90
25951;DHT22;13748;52.240;6.002;2023-04-01T11:24:29;12.90;99.90
25951;DHT22;13748;52.240;6.002;2023-04-01T11:32:50;13.00;99.90
25951;DHT22;13748;52.240;6.002;2023-04-01T11:41:26;13.40;99.90
25951;DHT22;13748;52.240;6.002;2023-04-01T11:44:47;13.60;99.90
25951;DHT22;13748;52.240;6.002;2023-04-01T11:47:40;13.70;99.90
25951;DHT22;13748;52.240;6.002;2023-04-01T12:01:52;13.30;99.90
25951;DHT22;13748;52.240;6.002;2023-04-01T12:04:40;13.10;99.90
25951;DHT22;13748;52.240;6.002;2023-04-01T12:18:58;12.40;99.90
25951;DHT22;13748;52.240;6.002;2023-04-01T12:21:36;12.40;99.90
25951;DHT22;13748;52.240;6.002;2023-04-01T12:35:24;12.80;99.90
25951;DHT22;13748;52.240;6.002;2023-04-01T12:38:21;12.90;99.90
25951;DHT22;13748;52.240;6.002;2023-04-01T12:41:09;12.90;99.90
25951;DHT22;13748;52.240;6.002;2023-04-01T12:49:57;13.10;99.90
25951;DHT22;13748;52.240;6.002;2023-04-01T13:09:29;13.10;99.90
25951;DHT22;13748;52.240;6.002;2023-04-01T13:15:13;13.10;99.90
25951;DHT22;13748;52.240;6.002;2023-04-01T13:23:39;13.10;99.90
25951;DHT22;13748;52.240;6.002;2023-04-01T13:26:30;13.10;99.90
25951;DHT22;13748;52.240;6.002;2023-04-01T13:29:17;13.00;99.90
25951;DHT22;13748;52.240;6.002;2023-04-01T13:32:06;13.10;99.90
25951;DHT22;13748;52.240;6.002;2023-04-01T13:34:47;13.10;99.90
25951;DHT22;13748;52.240;6.002;2023-04-01T13:42:45;13.10;99.90
25951;DHT22;13748;52.240;6.002;2023-04-01T13:45:19;13.00;99.90
25951;DHT22;13748;52.240;6.002;2023-04-01T13:47:54;13.10;99.90
25951;DHT22;13748;52.240;6.002;2023-04-01T13:55:55;13.10;99.90
25951;DHT22;13748;52.240;6.002;2023-04-01T13:58:48;13.10;99.90
25951;DHT22;13748;52.240;6.002;2023-04-01T14:12:47;13.10;99.90
25951;DHT22;13748;52.240;6.002;2023-04-01T14:21:30;12.70;99.90
25951;DHT22;13748;52.240;6.002;2023-04-01T14:33:26;12.00;99.90
25951;DHT22;13748;52.240;6.002;2023-04-01T14:46:56;11.80;99.90
25951;DHT22;13748;52.240;6.002;2023-04-01T14:52:30;11.80;99.90
25951;DHT22;13748;52.240;6.002;2023-04-01T14:54:58;11.70;99.90
25951;DHT22;13748;52.240;6.002;2023-04-01T14:57:28;11.60;99.90
25951;DHT22;13748;52.240;6.002;2023-04-01T15:00:16;11.60;99.90
25951;DHT22;13748;52.240;6.002;2023-04-01T15:03:08;11.60;99.90
25951;DHT22;13748;52.240;6.002;2023-04-01T15:05:39;11.50;99.90
25951;DHT22;13748;52.240;6.002;2023-04-01T15:08:22;11.50;99.90
25951;DHT22;13748;52.240;6.002;2023-04-01T15:16:25;11.40;99.90
25951;DHT22;13748;52.240;6.002;2023-04-01T15:19:22;11.40;99.90
25951;DHT22;13748;52.240;6.002;2023-04-01T15:22:53;11.40;99.90
25951;DHT22;13748;52.240;6.002;2023-04-01T15:31:10;11.40;99.90
25951;DHT22;13748;52.240;6.002;2023-04-01T15:39:30;11.30;99.90
25951;DHT22;13748;52.240;6.002;2023-04-01T15:42:44;11.30;99.90
25951;DHT22;13748;52.240;6.002;2023-04-01T15:48:01;11.20;99.90
25951;DHT22;13748;52.240;6.002;2023-04-01T15:55:48;11.30;99.90
25951;DHT22;13748;52.240;6.002;2023-04-01T15:58:48;11.20;99.90
25951;DHT22;13748;52.240;6.002;2023-04-01T16:04:46;11.20;99.90
25951;DHT22;13748;52.240;6.002;2023-04-01T16:07:40;11.20;99.90
25951;DHT22;13748;52.240;6.002;2023-04-01T16:16:03;11.00;99.90
25951;DHT22;13748;52.240;6.002;2023-04-01T16:18:44;11.00;99.90
25951;DHT22;13748;52.240;6.002;2023-04-01T16:23:58;11.00;99.90
25951;DHT22;13748;52.240;6.002;2023-04-01T16:31:47;10.80;99.90
25951;DHT22;13748;52.240;6.002;2023-04-01T16:34:31;10.80;99.90
25951;DHT22;13748;52.240;6.002;2023-04-01T16:37:05;10.70;99.90
25951;DHT22;13748;52.240;6.002;2023-04-01T16:42:34;10.60;99.90
25951;DHT22;13748;52.240;6.002;2023-04-01T16:48:00;10.60;99.90
25951;DHT22;13748;52.240;6.002;2023-04-01T16:50:37;10.60;99.90
25951;DHT22;13748;52.240;6.002;2023-04-01T16:53:36;10.60;99.90
25951;DHT22;13748;52.240;6.002;2023-04-01T16:58:35;10.50;99.90
25951;DHT22;13748;52.240;6.002;2023-04-01T17:01:04;10.50;99.90
25951;DHT22;13748;52.240;6.002;2023-04-01T17:03:38;10.50;99.90
25951;DHT22;13748;52.240;6.002;2023-04-01T17:14:37;10.30;99.90
25951;DHT22;13748;52.240;6.002;2023-04-01T17:20:13;10.20;99.90
25951;DHT22;13748;52.240;6.002;2023-04-01T17:22:54;10.10;99.90
25951;DHT22;13748;52.240;6.002;2023-04-01T17:25:53;10.10;99.90
25951;DHT22;13748;52.240;6.002;2023-04-01T17:39:30;10.00;99.90
25951;DHT22;13748;52.240;6.002;2023-04-01T17:42:08;10.00;99.90
25951;DHT22;13748;52.240;6.002;2023-04-01T17:44:59;10.00;99.90
25951;DHT22;13748;52.240;6.002;2023-04-01T17:48:01;10.00;99.90
25951;DHT22;13748;52.240;6.002;2023-04-01T17:50:58;10.00;99.90
25951;DHT22;13748;52.240;6.002;2023-04-01T17:56:09;10.10;99.90
25951;DHT22;13748;52.240;6.002;2023-04-01T17:58:46;9.80;99.90
25951;DHT22;13748;52.240;6.002;2023-04-01T18:10:13;9.50;99.90
25951;DHT22;13748;52.240;6.002;2023-04-01T18:18:55;9.50;99.90
25951;DHT22;13748;52.240;6.002;2023-04-01T18:21:46;9.40;99.90
25951;DHT22;13748;52.240;6.002;2023-04-01T18:27:23;9.40;99.90
25951;DHT22;13748;52.240;6.002;2023-04-01T18:30:28;9.50;99.90
25951;DHT22;13748;52.240;6.002;2023-04-01T18:33:16;9.50;99.90
25951;DHT22;13748;52.240;6.002;2023-04-01T18:36:38;9.50;99.90
25951;DHT22;13748;52.240;6.002;2023-04-01T18:38:41;9.50;99.90
25951;DHT22;13748;52.240;6.002;2023-04-01T18:49:29;9.30;99.90
25951;DHT22;13748;52.240;6.002;2023-04-01T18:52:09;9.30;99.90
25951;DHT22;13748;52.240;6.002;2023-04-01T18:54:47;9.30;99.90
25951;DHT22;13748;52.240;6.002;2023-04-01T18:57:18;9.30;99.90
25951;DHT22;13748;52.240;6.002;2023-04-01T18:59:53;9.20;99.90
25951;DHT22;13748;52.240;6.002;2023-04-01T19:02:31;9.20;99.90
25951;DHT22;13748;52.240;6.002;2023-04-01T19:05:07;9.20;99.90
25951;DHT22;13748;52.240;6.002;2023-04-01T19:07:45;9.10;99.90
25951;DHT22;13748;52.240;6.002;2023-04-01T19:10:38;9.10;99.90
25951;DHT22;13748;52.240;6.002;2023-04-01T19:16:00;9.10;99.90
25951;DHT22;13748;52.240;6.002;2023-04-01T19:21:43;9.10;99.90
25951;DHT22;13748;52.240;6.002;2023-04-01T19:27:37;9.10;99.90
25951;DHT22;13748;52.240;6.002;2023-04-01T19:30:29;9.00;99.90
25951;DHT22;13748;52.240;6.002;2023-04-01T19:38:39;8.90;99.90
25951;DHT22;13748;52.240;6.002;2023-04-01T19:41:34;8.90;99.90
25951;DHT22;13748;52.240;6.002;2023-04-01T19:44:17;8.90;99.90
25951;DHT22;13748;52.240;6.002;2023-04-01T19:47:15;8.80;99.90
25951;DHT22;13748;52.240;6.002;2023-04-01T19:52:41;8.80;99.90
25951;DHT22;13748;52.240;6.002;2023-04-01T19:55:33;8.80;99.90
25951;DHT22;13748;52.240;6.002;2023-04-01T19:58:56;8.80;99.90
25951;DHT22;13748;52.240;6.002;2023-04-01T20:01:24;8.80;99.90
25951;DHT22;13748;52.240;6.002;2023-04-01T20:07:09;8.70;99.90
25951;DHT22;13748;52.240;6.002;2023-04-01T20:10:04;8.70;99.90
25951;DHT22;13748;52.240;6.002;2023-04-01T20:15:45;8.70;99.90
25951;DHT22;13748;52.240;6.002;2023-04-01T20:18:23;8.60;99.90
25951;DHT22;13748;52.240;6.002;2023-04-01T20:26:48;8.60;99.90
25951;DHT22;13748;52.240;6.002;2023-04-01T20:37:49;8.40;99.90
25951;DHT22;13748;52.240;6.002;2023-04-01T20:40:40;8.40;99.90
25951;DHT22;13748;52.240;6.002;2023-04-01T20:43:23;8.50;99.90
25951;DHT22;13748;52.240;6.002;2023-04-01T20:46:20;8.40;99.90
25951;DHT22;13748;52.240;6.002;2023-04-01T20:51:53;8.30;99.90
25951;DHT22;13748;52.240;6.002;2023-04-01T20:54:34;8.30;99.90
25951;DHT22;13748;52.240;6.002;2023-04-01T20:57:18;8.20;99.90
25951;DHT22;13748;52.240;6.002;2023-04-01T21:08:15;8.00;99.90
25951;DHT22;13748;52.240;6.002;2023-04-01T21:11:22;8.00;99.90
25951;DHT22;13748;52.240;6.002;2023-04-01T21:14:36;8.00;99.90
25951;DHT22;13748;52.240;6.002;2023-04-01T21:17:24;7.90;99.90
25951;DHT22;13748;52.240;6.002;2023-04-01T21:25:28;7.80;99.90
25951;DHT22;13748;52.240;6.002;2023-04-01T21:28:12;7.80;99.90
25951;DHT22;13748;52.240;6.002;2023-04-01T21:38:59;7.80;99.90
25951;DHT22;13748;52.240;6.002;2023-04-01T21:44:30;7.80;99.90
25951;DHT22;13748;52.240;6.002;2023-04-01T21:50:06;7.70;99.90
25951;DHT22;13748;52.240;6.002;2023-04-01T22:06:40;7.60;99.90
25951;DHT22;13748;52.240;6.002;2023-04-01T22:09:24;7.60;99.90
25951;DHT22;13748;52.240;6.002;2023-04-01T22:14:44;7.50;99.90
25951;DHT22;13748;52.240;6.002;2023-04-01T22:17:26;7.60;99.90
25951;DHT22;13748;52.240;6.002;2023-04-01T22:20:27;7.60;99.90
25951;DHT22;13748;52.240;6.002;2023-04-01T22:23:12;7.60;99.90
25951;DHT22;13748;52.240;6.002;2023-04-01T22:26:05;7.50;99.90
25951;DHT22;13748;52.240;6.002;2023-04-01T22:28:53;7.50;99.90
25951;DHT22;13748;52.240;6.002;2023-04-01T22:32:11;7.50;99.90
25951;DHT22;13748;52.240;6.002;2023-04-01T22:40:52;7.30;99.90
25951;DHT22;13748;52.240;6.002;2023-04-01T22:43:42;7.30;99.90
25951;DHT22;13748;52.240;6.002;2023-04-01T22:48:47;7.30;99.90
25951;DHT22;13748;52.240;6.002;2023-04-01T22:51:18;7.30;99.90
25951;DHT22;13748;52.240;6.002;2023-04-01T22:56:37;7.30;99.90
25951;DHT22;13748;52.240;6.002;2023-04-01T22:59:19;7.30;99.90
25951;DHT22;13748;52.240;6.002;2023-04-01T23:02:10;7.30;99.90
25951;DHT22;13748;52.240;6.002;2023-04-01T23:04:40;7.30;99.90
25951;DHT22;13748;52.240;6.002;2023-04-01T23:10:25;7.20;99.90
25951;DHT22;13748;52.240;6.002;2023-04-01T23:12:57;7.30;99.90
25951;DHT22;13748;52.240;6.002;2023-04-01T23:15:25;7.30;99.90
25951;DHT22;13748;52.240;6.002;2023-04-01T23:17:56;7.20;99.90
25951;DHT22;13748;52.240;6.002;2023-04-01T23:23:24;7.30;99.90
25951;DHT22;13748;52.240;6.002;2023-04-01T23:26:14;7.20;99.90
25951;DHT22;13748;52.240;6.002;2023-04-01T23:28:55;7.20;99.90
25951;DHT22;13748;52.240;6.002;2023-04-01T23:31:36;7.20;99.90
25951;DHT22;13748;52.240;6.002;2023-04-01T23:36:44;7.10;99.90
25951;DHT22;13748;52.240;6.002;2023-04-01T23:39:20;7.00;99.90
25951;DHT22;13748;52.240;6.002;2023-04-01T23:41:51;7.00;99.90
25951;DHT22;13748;52.240;6.002;2023-04-01T23:44:19;7.10;99.90
25951;DHT22;13748;52.240;6.002;2023-04-01T23:46:47;7.00;99.90
25951;DHT22;13748;52.240;6.002;2023-04-01T23:49:24;7.00;99.90
25951;DHT22;13748;52.240;6.002;2023-04-01T23:52:25;7.10;99.90
25951;DHT22;13748;52.240;6.002;2023-04-01T23:54:58;7.00;99.90
25951;DHT22;13748;52.240;6.002;2023-04-01T23:57:31;7.10;99.90
